Nearby METAR Reports

 

KMHT - Manchester, New Hampshire, USA
Distance from station: W 16mi, 26km
Updated: Thu, 13-Dec-2018 11:53pm EST
Overcast
Overcast
 Wind from calm
Wind: Calm
Temperature: 27°F , -3°C
Dew Point: 16°F , -9°C
Humidity: 64%
Barometer: 30.54 inHg , 1034.2 hPa
Clouds: Overcast
Visibility: 10 miles , 16 km
Cloud details: Overcast 3200 ft
2018/12/14 04:53 KMHT 140453Z 00000KT 10SM OVC032 M03/M09 A3054 RMK AO2 SLP363 T10281094 410281117
KPSM - Portsmouth/Pease, New Hampshire, USA
Distance from station: ENE 17mi, 27km
Updated: Thu, 13-Dec-2018 11:56pm EST
Overcast
Overcast
 Wind from calm
Wind: Calm
Temperature: 27°F , -3°C
Dew Point: 18°F , -8°C
Humidity: 69%
Barometer: 30.55 inHg , 1034.5 hPa
Clouds: Overcast
Visibility: 10 miles , 16 km
Cloud details: Overcast 3800 ft
2018/12/14 04:56 KPSM 140456Z 00000KT 10SM OVC038 M03/M08 A3055 RMK AO2A SLP349 T10291084 410191123
 
KASH - Nashua/Boire Fld, New Hampshire, USA
Distance from station: WSW 24mi, 38km
Updated: Thu, 13-Dec-2018 11:56pm EST
Overcast
Overcast
 Wind from calm
Wind: Calm
Temperature: 27°F , -3°C
Dew Point: 18°F , -8°C
Humidity: 69%
Barometer: 30.56 inHg , 1034.9 hPa
Clouds: Overcast
Visibility: 10 miles , 16 km
Cloud details: Overcast 3200 ft
2018/12/14 04:56 KASH 140456Z AUTO 00000KT 10SM OVC032 M03/M08 A3056 RMK AO2 SLP361 T10281078 410221133 FZRANO $
KDAW - Rochester, New Hampshire, USA
Distance from station: NNE 24mi, 39km
Updated: Thu, 13-Dec-2018 11:51pm EST
Overcast
Overcast
 Wind from NW
Wind: NW 3 mph , 6 km/h
Temperature: 27°F , -3°C
Dew Point: 19°F , -7°C
Humidity: 74%
Barometer: 30.55 inHg , 1034.5 hPa
Clouds: Overcast
Visibility: 10 miles , 16 km
Cloud details: Mostly cloudy 3300 ft
Overcast 5000 ft
2018/12/14 04:51 KDAW 140451Z AUTO 31003KT 10SM BKN033 OVC050 M03/M07 A3055 RMK AO2 SLP346 T10281072 410281156